Dati Storici

Data ora Umidita' aria (%) Temperatura aria (°C) Rad globale (W/m²) Gonioanemometro (°) Tacoanemometro (m/s) Pioggia (mm)
17-06-2020 16:50 72 % 21.921 -38.454 -0.017 0 0
17-06-2020 16:40 72.1 % 21.452 -40.501 0.406 0 0
17-06-2020 16:30 72.2 % 21.542 -54.248 0.684 0 0
17-06-2020 16:20 71.9 % 21.519 -53.697 1.196 0 0
17-06-2020 16:10 71.9 % 21.217 -59.481 1.322 0 0
17-06-2020 16:00 76.8 % 21.365 -46.611 0.633 0 0
17-06-2020 15:50 78.1 % 20.812 -51.961 1.178 0 0
17-06-2020 15:40 81.4 % 20.746 -55.632 1.919 0 0
17-06-2020 15:30 86.8 % 20.371 -69.586 0.849 0 0
17-06-2020 15:20 88.7 % 20.271 -77.877 1.047 0 0
17-06-2020 15:10 87.6 % 20.237 -73.051 1.775 0 0
17-06-2020 15:00 86.7 % 20.717 -78.61 -0.02 0 0
17-06-2020 14:50 89.2 % 20.659 -70.23 0.321 0 0
17-06-2020 14:40 90.1 % 20.67 -42.436 1.329 0 0
17-06-2020 14:30 93.2 % 20.274 -47.653 0.708 0 0
17-06-2020 14:20 94.7 % 19.512 -74.865 1.936 0 0
17-06-2020 14:10 88.8 % 19.311 -78.755 0.923 0 0
17-06-2020 14:00 84.5 % 19.897 -60.117 1.043 0 0
17-06-2020 13:50 82.1 % 19.614 -80.982 2.354 0 0
17-06-2020 13:40 76.9 % 20.12 -61.024 3.081 0 0

I dati sono presentati in modo automatico a scopo informativo. In seguito a verifica i dati possono subire modifiche o essere invalidati e non riportati negli archivi definitivi.